Weather History for Haleyville, AL

Change the Weather History Date:

Monday, November 12, 2012

  Actual Average (KJFX) Record (KJFX)
Temperature  
Mean Temperature 46 °F -  
Max Temperature 61 °F 62 °F 80 °F (1985)
Min Temperature 32 °F 37 °F 20 °F (1960)
Degree Days  
Heating Degree Days 18    
Moisture  
Dew Point 48 °F    
Average Humidity 91    
Maximum Humidity 100    
Minimum Humidity 63    
Precipitation  
Precipitation 1.07 in - - ()
Sea Level Pressure  
Sea Level Pressure 30.27 in    
Wind  
Wind Speed 9 mph (WNW)    
Max Wind Speed 15 mph    
Max Gust Speed 22 mph    
Visibility 5 miles    
Events Rain    
Averages and records for this station are not official NWS values.
T = Trace of Precipitation, MM = Missing Value Source: NWS Daily Summary

Daily Weather History Graph

Daily Weather History Graph

Search for Another Location

Airport:

Trip Planner

Search our weather history database for the weather conditions in past years. The results will help you decide how hot, cold, wet, or windy it might be!

Date:

Astronomy

Nov. 12, 2012 Rise Set
Actual Time 6:21 AM CST 4:47 PM CST
Civil Twilight 5:54 AM CST 5:14 PM CST
Nautical Twilight 5:24 AM CST 5:44 PM CST
Astronomical Twilight 4:54 AM CST 6:14 PM CST
Moon 4:48 AM CST (11/12) 3:51 PM CST (11/12)
Length of Visible Light 11h 19m
Length of Day
10h 26m
Waning Crescent, 2% of the Moon is Illuminated
Nov 12
Waning Crescent
Nov 13
New
Nov 20
First Quarter
Nov 28
Full
Dec 6
Last Quarter

Hourly Weather History & Observations

Time (CST) Temp. Windchill Dew Point Humidity Pressure Visibility Wind Dir Wind Speed Gust Speed Precip Events Conditions
12:56 AM 61.0 °F - 50.9 °F 69% 30.20 in 10.0 mi SSE 10.4 mph - 0.00 in Rain Light Rain
1:56 AM 61.0 °F - 50.9 °F 69% 30.20 in 10.0 mi South 10.4 mph - 0.00 in   Overcast
2:17 AM 59.0 °F - 53.6 °F 82% 30.18 in 3.0 mi South 12.7 mph 18.4 mph 0.02 in Rain Rain
2:23 AM 57.2 °F - 53.6 °F 88% 30.18 in 2.5 mi South 15.0 mph 18.4 mph 0.05 in Rain Heavy Rain
2:46 AM 55.4 °F - 53.6 °F 94% 30.15 in 3.0 mi South 11.5 mph - 0.11 in Rain Rain
2:56 AM 55.9 °F - 54.9 °F 96% 30.19 in 3.0 mi South 10.4 mph - 0.14 in Rain Heavy Rain
3:25 AM 55.4 °F - 53.6 °F 94% 30.15 in 2.5 mi South 12.7 mph 18.4 mph 0.08 in Rain Heavy Rain
3:37 AM 55.4 °F - 53.6 °F 94% 30.16 in 3.0 mi South 11.5 mph - 0.12 in Rain Heavy Rain
3:56 AM 55.9 °F - 54.9 °F 96% 30.19 in 3.0 mi SSE 12.7 mph - 0.16 in Rain Heavy Rain
4:03 AM 55.4 °F - 55.4 °F 100% 30.16 in 2.0 mi SSE 10.4 mph 20.7 mph 0.03 in Rain Heavy Rain
4:12 AM 55.4 °F - 55.4 °F 100% 30.15 in 3.0 mi SSE 10.4 mph - 0.06 in Rain Rain
4:56 AM 55.9 °F - 54.9 °F 96% 30.17 in 3.0 mi SSE 9.2 mph 19.6 mph 0.17 in Rain Heavy Rain
5:28 AM 55.4 °F - 55.4 °F 100% 30.15 in 1.8 mi SSE 10.4 mph - 0.09 in Rain Heavy Rain
5:34 AM 55.4 °F - 55.4 °F 100% 30.15 in 3.0 mi SSE 12.7 mph 19.6 mph 0.09 in Rain Rain
5:56 AM 55.9 °F - 54.9 °F 96% 30.19 in 1.2 mi South 11.5 mph - 0.16 in Rain Heavy Rain
6:02 AM 55.4 °F - 55.4 °F 100% 30.16 in 1.8 mi South 8.1 mph - 0.01 in Rain Heavy Rain
6:04 AM 55.4 °F - 55.4 °F 100% 30.16 in 2.0 mi South 11.5 mph - 0.02 in Rain Heavy Rain
6:12 AM 55.4 °F - 55.4 °F 100% 30.18 in 1.8 mi Variable 6.9 mph - 0.05 in Rain Heavy Rain
6:25 AM 55.4 °F - 55.4 °F 100% 30.19 in 1.5 mi West 5.8 mph - 0.11 in Rain Heavy Rain
6:28 AM 55.4 °F - 55.4 °F 100% 30.20 in 1.2 mi WSW 8.1 mph - 0.14 in Rain Heavy Rain
6:42 AM 55.4 °F - 55.4 °F 100% 30.21 in 1.8 mi Variable 4.6 mph - 0.22 in Rain Heavy Rain
6:56 AM 52.9 °F - 52.9 °F 100% 30.25 in 1.8 mi NW 6.9 mph - 0.27 in Rain Heavy Rain
7:20 AM 51.8 °F - 51.8 °F 100% 30.23 in 1.2 mi NW 5.8 mph - 0.05 in Rain Heavy Rain
7:29 AM 51.8 °F - 51.8 °F 100% 30.23 in 1.0 mi NW 9.2 mph - 0.08 in Rain Heavy Rain
7:32 AM 51.8 °F - 51.8 °F 100% 30.24 in 1.5 mi NW 8.1 mph - 0.09 in Rain Heavy Rain
7:41 AM 51.8 °F - 51.8 °F 100% 30.24 in 1.0 mi NW 6.9 mph - 0.12 in Rain Heavy Rain
7:45 AM 51.8 °F - 51.8 °F 100% 30.25 in 1.2 mi NW 6.9 mph - 0.13 in Rain Heavy Rain
7:56 AM 50.9 °F - 50.9 °F 100% 30.27 in 1.5 mi NNW 5.8 mph - 0.15 in Rain Heavy Rain
8:05 AM 51.8 °F - 51.8 °F 100% 30.25 in 2.5 mi NNW 5.8 mph - 0.00 in Rain Light Rain
8:10 AM 51.8 °F - 51.8 °F 100% 30.24 in 4.0 mi NNW 6.9 mph - 0.00 in Rain Light Rain
8:41 AM 51.8 °F - 50.0 °F 94% 30.25 in 10.0 mi NNW 4.6 mph - 0.00 in Rain Light Rain
8:56 AM 50.9 °F - 50.9 °F 100% 30.28 in 9.0 mi Calm Calm - 0.00 in   Overcast
9:25 AM 51.8 °F - 50.0 °F 94% 30.27 in 2.5 mi WNW 4.6 mph - 0.00 in Rain Light Rain
9:38 AM 51.8 °F - 51.8 °F 100% 30.27 in 1.8 mi NW 6.9 mph - 0.01 in Rain Light Rain
9:44 AM 51.8 °F - 51.8 °F 100% 30.27 in 3.0 mi Calm Calm - 0.01 in Rain Light Rain
9:56 AM 50.9 °F - 50.9 °F 100% 30.31 in 8.0 mi Variable 4.6 mph - 0.01 in Rain Light Rain
10:07 AM 51.8 °F - 51.8 °F 100% 30.29 in 9.0 mi Calm Calm - 0.00 in Rain Light Rain
10:14 AM 51.8 °F - 51.8 °F 100% 30.29 in 3.0 mi Variable 3.5 mph - 0.01 in Rain Heavy Rain
10:20 AM 51.8 °F - 50.0 °F 94% 30.29 in 3.0 mi NW 6.9 mph - 0.01 in Rain Rain
10:56 AM 50.9 °F - 48.9 °F 93% 30.32 in 10.0 mi NW 8.1 mph 16.1 mph 0.01 in   Overcast
11:56 AM 47.8 °F - 46.9 °F 97% 30.34 in 10.0 mi NW 12.7 mph - 0.00 in   Overcast
12:34 PM 48.2 °F - 46.4 °F 93% 30.32 in 10.0 mi NNW 10.4 mph 21.9 mph N/A   Overcast
12:46 PM 48.2 °F - 46.4 °F 93% 30.32 in 10.0 mi NNW 11.5 mph - N/A   Overcast
12:56 PM 47.8 °F - 45.9 °F 93% 30.35 in 10.0 mi NNW 8.1 mph 16.1 mph N/A   Overcast
1:44 PM 46.4 °F 40.7 °F 42.8 °F 87% 30.34 in 10.0 mi NW 12.7 mph - N/A   Overcast
1:56 PM 45.9 °F 40.0 °F 43.0 °F 90% 30.37 in 10.0 mi NW 12.7 mph - N/A   Overcast
2:24 PM 46.4 °F 41.1 °F 39.2 °F 76% 30.34 in 10.0 mi NNW 11.5 mph - N/A   Mostly Cloudy
2:56 PM 47.8 °F - 37.9 °F 69% 30.37 in 10.0 mi NNW 11.5 mph - N/A   Partly Cloudy
3:56 PM 47.8 °F - 36.0 °F 63% 30.37 in 10.0 mi North 9.2 mph - N/A   Clear
4:56 PM 43.9 °F 39.3 °F 34.9 °F 71% 30.39 in 10.0 mi NNW 8.1 mph - N/A   Clear
5:56 PM 41.9 °F 37.5 °F 32.9 °F 70% 30.41 in 10.0 mi NNW 6.9 mph - N/A   Clear
6:56 PM 39.9 °F 35.1 °F 32.0 °F 73% 30.43 in 10.0 mi North 6.9 mph - N/A   Clear
7:56 PM 36.9 °F - 28.0 °F 70% 30.45 in 10.0 mi Calm Calm - N/A   Clear
8:56 PM 34.9 °F 30.8 °F 27.1 °F 73% 30.46 in 10.0 mi North 4.6 mph - N/A   Clear
9:56 PM 34.0 °F 28.0 °F 27.1 °F 76% 30.46 in 10.0 mi North 6.9 mph - N/A   Clear
10:56 PM 32.9 °F 27.5 °F 26.1 °F 76% 30.46 in 10.0 mi North 5.8 mph - N/A   Clear
11:56 PM 34.0 °F 28.0 °F 26.1 °F 73% 30.45 in 10.0 mi North 6.9 mph - N/A   Clear